Aviation Digital Data Service (ADDS)

Output produced by TAFs form (1501 UTC 26 March 2017)
found at http://www.aviationweather.gov/adds/tafs/
 
TAF AMD KDOV 261008Z 2610/2714 07009KT 9999 BKN015 OVC050 QNH3027INS 
     BECMG 2614/2615 08012KT 9000 -RA BKN007 OVC015 QNH3030INS 
     BECMG 2618/2619 08009KT 9999 NSW OVC006 QNH3017INS 
     BECMG 2704/2705 10009KT 3200 BR OVC006 QNH3009INS 
     BECMG 2712/2713 10012KT 9999 NSW BKN060 QNH3008INS TX08/2621Z TN05/2612Z